Kalamazoo METAR

KAZO 160853Z AUTO 28009KT 8SM -RA FEW043 BKN055 OVC065 12/09 A2983 RMK AO2 RAB17E31B47 SLP103 P0000 60000 T01170089 56009

Kalamazoo TAF

TAF KAZO 160544Z 1606/1706 31006KT 6SM -RA BR OVC060 FM160800 28006KT P6SM VCSH OVC035 FM161400 30012G22KT P6SM VCSH SCT024 BKN060 FM162300 29009KT P6SM SCT030 BKN070